createdAt,value
2019-03-18T00:02:03.478Z,2.00
2019-03-18T00:04:36.630Z,3.93
2019-03-18T00:07:09.470Z,4.77
2019-03-18T00:09:45.319Z,3.00
2019-03-18T00:12:15.577Z,0.77
2019-03-18T00:14:45.423Z,3.13
2019-03-18T00:17:15.764Z,3.23
2019-03-18T00:19:45.733Z,1.50
2019-03-18T00:22:21.224Z,3.77
2019-03-18T00:24:53.652Z,5.57
2019-03-18T00:27:23.812Z,1.33
2019-03-18T00:29:53.793Z,2.47
2019-03-18T00:32:25.238Z,4.73
2019-03-18T00:34:59.163Z,2.73
2019-03-18T00:37:29.561Z,2.03
2019-03-18T00:40:00.608Z,2.17
2019-03-18T00:42:39.374Z,3.60
2019-03-18T00:45:14.658Z,6.07
2019-03-18T00:47:41.149Z,1.60
2019-03-18T00:50:11.312Z,3.23
2019-03-18T00:52:41.583Z,2.03
2019-03-18T00:55:23.858Z,3.57
2019-03-18T00:57:53.977Z,2.40
2019-03-18T01:00:27.284Z,1.50
2019-03-18T01:02:57.233Z,3.07
2019-03-18T01:05:29.053Z,2.33
2019-03-18T01:07:59.340Z,4.80
2019-03-18T01:10:30.869Z,3.90
2019-03-18T01:13:03.701Z,4.70
2019-03-18T01:15:33.537Z,2.60
2019-03-18T01:18:04.606Z,4.63
2019-03-18T01:20:34.313Z,4.83
2019-03-18T01:23:09.076Z,3.40
2019-03-18T01:25:38.888Z,3.63
2019-03-18T01:28:11.011Z,7.37
2019-03-18T01:30:40.896Z,5.33
2019-03-18T01:33:17.243Z,4.60
2019-03-18T01:35:49.972Z,3.47
2019-03-18T01:38:19.942Z,4.00
2019-03-18T01:40:49.902Z,3.87
2019-03-18T01:43:25.550Z,4.30
2019-03-18T01:45:57.384Z,2.33
2019-03-18T01:48:30.044Z,2.73
2019-03-18T01:50:59.896Z,4.83
2019-03-18T01:53:30.839Z,4.63
2019-03-18T01:56:02.302Z,3.23
2019-03-18T01:58:34.145Z,3.67
2019-03-18T02:01:07.069Z,4.70
2019-03-18T02:03:36.924Z,2.70
2019-03-18T02:06:12.552Z,3.10
2019-03-18T02:08:45.257Z,3.13
2019-03-18T02:11:15.123Z,3.80
2019-03-18T02:13:49.987Z,2.47
2019-03-18T02:16:21.092Z,9.80
2019-03-18T02:18:50.987Z,4.73
2019-03-18T02:21:21.831Z,3.57
2019-03-18T02:23:52.165Z,4.43
2019-03-18T02:26:22.128Z,6.57
2019-03-18T02:28:51.965Z,4.00
2019-03-18T02:31:21.831Z,4.07
2019-03-18T02:33:51.781Z,3.07
2019-03-18T02:36:21.562Z,7.77
2019-03-18T02:38:51.375Z,4.80
2019-03-18T02:41:21.186Z,4.73
2019-03-18T02:43:51.130Z,4.23
2019-03-18T02:46:20.983Z,6.43
2019-03-18T02:48:50.860Z,7.00
2019-03-18T02:51:20.625Z,4.97
2019-03-18T02:53:50.458Z,8.10
2019-03-18T02:56:20.599Z,4.33
2019-03-18T02:58:50.563Z,5.03
2019-03-18T03:01:20.541Z,7.57
2019-03-18T03:03:50.670Z,4.67
2019-03-18T03:06:20.712Z,2.53
2019-03-18T03:08:50.559Z,5.70
2019-03-18T03:11:20.374Z,7.77
2019-03-18T03:13:50.165Z,7.57
2019-03-18T03:16:29.239Z,6.77
2019-03-18T03:18:59.933Z,4.00
2019-03-18T03:21:29.828Z,3.80
2019-03-18T03:23:59.707Z,6.50
2019-03-18T03:26:29.556Z,2.33
2019-03-18T03:28:59.435Z,5.63
2019-03-18T03:31:30.358Z,6.73
2019-03-18T03:34:00.284Z,4.50
2019-03-18T03:36:30.218Z,5.20
2019-03-18T03:39:00.053Z,3.63
2019-03-18T03:41:30.049Z,5.57
2019-03-18T03:43:59.900Z,5.07
2019-03-18T03:46:42.449Z,4.83
2019-03-18T03:49:01.265Z,7.27
2019-03-18T03:51:31.234Z,3.67
2019-03-18T03:54:01.111Z,3.20
2019-03-18T03:56:31.037Z,4.87
2019-03-18T03:59:03.003Z,4.67
2019-03-18T04:01:32.924Z,4.33
2019-03-18T04:04:02.810Z,3.70
2019-03-18T04:06:32.669Z,5.23
2019-03-18T04:09:04.080Z,5.37
2019-03-18T04:11:33.925Z,4.63
2019-03-18T04:14:04.160Z,5.50
2019-03-18T04:16:33.982Z,6.50
2019-03-18T04:19:05.961Z,3.73
2019-03-18T04:21:35.805Z,4.63
2019-03-18T04:24:05.610Z,2.73
2019-03-18T04:26:35.309Z,5.10
2019-03-18T04:29:05.139Z,5.67
2019-03-18T04:31:34.974Z,4.80
2019-03-18T04:34:05.948Z,4.30
2019-03-18T04:36:35.700Z,7.03
2019-03-18T04:39:07.911Z,4.67
2019-03-18T04:41:37.731Z,6.43
2019-03-18T04:44:07.579Z,5.33
2019-03-18T04:46:37.437Z,3.90
2019-03-18T04:49:07.229Z,6.87
2019-03-18T04:51:37.116Z,6.97
2019-03-18T04:54:06.818Z,5.30
2019-03-18T04:56:36.738Z,6.00
2019-03-18T04:59:06.645Z,6.60
2019-03-18T05:01:37.508Z,7.47
2019-03-18T05:04:07.422Z,7.23
2019-03-18T05:06:38.323Z,8.63
2019-03-18T05:09:08.236Z,7.13
2019-03-18T05:12:02.345Z,8.20
2019-03-18T05:14:32.314Z,9.20
2019-03-18T05:17:02.216Z,9.80
2019-03-18T05:19:32.014Z,10.30
2019-03-18T05:22:01.833Z,9.77
2019-03-18T05:24:31.631Z,10.87
2019-03-18T05:27:01.509Z,10.57
2019-03-18T05:29:31.369Z,12.00
2019-03-18T05:32:04.951Z,12.00
2019-03-18T05:34:34.999Z,10.40
2019-03-18T05:37:05.315Z,8.93
2019-03-18T05:39:35.212Z,11.80
2019-03-18T05:42:05.090Z,13.27
2019-03-18T05:44:34.929Z,12.60
2019-03-18T05:47:05.951Z,17.77
2019-03-18T05:49:35.810Z,12.43
2019-03-18T05:52:05.626Z,11.60
2019-03-18T05:54:35.969Z,11.47
2019-03-18T05:57:05.922Z,10.63
2019-03-18T05:59:36.101Z,13.37
2019-03-18T06:02:06.124Z,11.93
2019-03-18T06:04:36.083Z,14.87
2019-03-18T06:07:06.214Z,12.13
2019-03-18T06:09:44.030Z,14.17
2019-03-18T06:12:13.965Z,13.90
2019-03-18T06:14:43.797Z,12.20
2019-03-18T06:17:13.815Z,13.90
2019-03-18T06:19:43.510Z,13.10
2019-03-18T06:22:13.434Z,12.80
2019-03-18T06:24:43.303Z,14.13
2019-03-18T06:27:13.155Z,15.30
2019-03-18T06:29:43.035Z,14.17
2019-03-18T06:32:12.823Z,11.67
2019-03-18T06:34:42.806Z,11.80
2019-03-18T06:37:12.949Z,15.57
2019-03-18T06:39:42.730Z,11.40
2019-03-18T06:42:12.834Z,13.77
2019-03-18T06:44:42.661Z,10.73
2019-03-18T06:47:14.462Z,15.87
2019-03-18T06:49:45.320Z,11.20
2019-03-18T06:52:15.256Z,9.13
2019-03-18T06:54:45.855Z,10.97
2019-03-18T06:57:15.711Z,9.20
2019-03-18T06:59:45.565Z,11.00
2019-03-18T07:02:16.015Z,12.83
2019-03-18T07:04:45.927Z,9.53
2019-03-18T07:07:17.734Z,12.13
2019-03-18T07:09:47.732Z,11.33
2019-03-18T07:12:17.592Z,11.83
2019-03-18T07:14:47.340Z,12.07
2019-03-18T07:17:17.173Z,10.97
2019-03-18T07:19:50.338Z,11.97
2019-03-18T07:22:20.156Z,15.83
2019-03-18T07:24:50.028Z,10.77
2019-03-18T07:27:19.854Z,12.57
2019-03-18T07:29:49.744Z,14.97
2019-03-18T07:32:19.712Z,13.93
2019-03-18T07:34:57.591Z,16.37
2019-03-18T07:37:27.398Z,14.07
2019-03-18T07:39:57.606Z,16.23
2019-03-18T07:42:27.488Z,11.83
2019-03-18T07:44:58.093Z,10.53
2019-03-18T07:47:28.342Z,13.43
2019-03-18T07:49:58.326Z,12.70
2019-03-18T07:52:28.581Z,13.90
2019-03-18T07:54:58.631Z,10.90
2019-03-18T07:57:32.828Z,12.70
2019-03-18T08:00:03.050Z,16.00
2019-03-18T08:02:32.873Z,16.33
2019-03-18T08:05:02.750Z,12.47
2019-03-18T08:07:32.623Z,12.00
2019-03-18T08:10:02.483Z,12.03
2019-03-18T08:12:33.367Z,12.73
2019-03-18T08:15:03.392Z,12.87
2019-03-18T08:17:33.264Z,10.37
2019-03-18T08:20:03.709Z,8.90
2019-03-18T08:22:34.654Z,15.33
2019-03-18T08:25:05.575Z,10.73
2019-03-18T08:27:35.430Z,11.57
2019-03-18T08:30:05.988Z,8.50
2019-03-18T08:32:35.791Z,9.83
2019-03-18T08:35:05.800Z,7.93
2019-03-18T08:37:35.776Z,8.17
2019-03-18T08:40:06.555Z,10.37
2019-03-18T08:42:36.629Z,9.93
2019-03-18T08:45:08.280Z,10.40
2019-03-18T08:47:38.182Z,12.57
2019-03-18T08:50:08.211Z,6.77
2019-03-18T08:52:38.192Z,9.07
2019-03-18T08:55:08.297Z,8.50
2019-03-18T08:57:38.167Z,11.50
2019-03-18T09:00:09.904Z,10.70
2019-03-18T09:02:39.784Z,9.03
2019-03-18T09:05:10.140Z,10.03
2019-03-18T09:07:41.079Z,7.37
2019-03-18T09:10:12.425Z,12.57
2019-03-18T09:12:42.481Z,15.47
2019-03-18T09:15:12.846Z,9.20
2019-03-18T09:17:42.888Z,14.47
2019-03-18T09:20:12.871Z,8.47
2019-03-18T09:22:42.744Z,11.17
2019-03-18T09:25:13.938Z,9.37
2019-03-18T09:27:44.157Z,9.17
2019-03-18T09:30:14.090Z,12.17
2019-03-18T09:32:43.818Z,10.30
2019-03-18T09:35:14.381Z,10.03
2019-03-18T09:37:44.277Z,4.80
2019-03-18T09:40:16.986Z,9.27
2019-03-18T09:42:49.082Z,8.20
2019-03-18T09:45:19.980Z,8.57
2019-03-18T09:47:50.776Z,14.13
2019-03-18T09:50:20.651Z,8.73
2019-03-18T09:52:51.800Z,9.80
2019-03-18T09:55:22.085Z,10.73
2019-03-18T09:57:52.214Z,6.77
2019-03-18T10:00:22.213Z,9.43
2019-03-18T10:02:52.154Z,9.40
2019-03-18T10:05:22.353Z,11.90
2019-03-18T10:07:54.199Z,14.13
2019-03-18T10:10:24.140Z,10.73
2019-03-18T10:12:54.389Z,12.27
2019-03-18T10:15:24.275Z,9.13
2019-03-18T10:17:54.096Z,9.80
2019-03-18T10:20:24.231Z,12.20
2019-03-18T10:22:55.282Z,12.73
2019-03-18T10:25:27.187Z,10.47
2019-03-18T10:28:01.939Z,11.00
2019-03-18T10:30:36.560Z,9.93
2019-03-18T10:33:06.146Z,12.27
2019-03-18T10:35:36.127Z,10.13
2019-03-18T10:38:06.916Z,7.87
2019-03-18T10:40:36.782Z,6.77
2019-03-18T10:43:06.817Z,9.37
2019-03-18T10:45:36.652Z,6.03
2019-03-18T10:48:06.586Z,8.33
2019-03-18T10:50:40.989Z,9.67
2019-03-18T10:53:11.977Z,7.83
2019-03-18T10:55:41.936Z,10.03
2019-03-18T10:58:11.914Z,9.57
2019-03-18T11:00:41.988Z,8.10
2019-03-18T11:03:13.242Z,8.83
2019-03-18T11:05:45.113Z,6.53
2019-03-18T11:08:15.397Z,11.30
2019-03-18T11:10:46.815Z,6.57
2019-03-18T11:13:18.926Z,7.50
2019-03-18T11:15:56.644Z,8.83
2019-03-18T11:18:27.136Z,7.37
2019-03-18T11:21:13.706Z,11.00
2019-03-18T11:23:43.913Z,6.80
2019-03-18T11:26:14.734Z,10.03
2019-03-18T11:28:47.498Z,10.67
2019-03-18T11:31:17.786Z,12.20
2019-03-18T11:33:47.818Z,7.30
2019-03-18T11:36:17.643Z,10.57
2019-03-18T11:38:55.299Z,6.97
2019-03-18T11:41:25.283Z,5.53
2019-03-18T11:44:14.950Z,9.80
2019-03-18T11:46:45.044Z,8.23
2019-03-18T11:49:15.215Z,14.87
2019-03-18T11:51:47.373Z,6.57
2019-03-18T11:54:21.501Z,12.63
2019-03-18T11:56:51.624Z,9.63
2019-03-18T11:59:23.442Z,8.10
2019-03-18T12:01:53.853Z,10.80
2019-03-18T12:04:23.926Z,8.40
2019-03-18T12:06:54.347Z,10.83
2019-03-18T12:09:24.321Z,9.47
2019-03-18T12:11:56.932Z,8.80
2019-03-18T12:14:26.769Z,7.63
2019-03-18T12:16:56.767Z,4.27
2019-03-18T12:19:29.479Z,4.47
2019-03-18T12:22:01.235Z,8.47
2019-03-18T12:24:31.916Z,5.17
2019-03-18T12:27:01.849Z,5.20
2019-03-18T12:29:32.226Z,4.53
2019-03-18T12:32:02.040Z,2.40
2019-03-18T12:34:38.773Z,6.23
2019-03-18T12:37:09.680Z,3.30
2019-03-18T12:39:39.515Z,4.87
2019-03-18T12:42:09.493Z,3.77
2019-03-18T12:44:40.704Z,7.53
2019-03-18T12:47:10.672Z,3.00
2019-03-18T12:49:40.683Z,4.87
2019-03-18T12:52:13.398Z,5.53
2019-03-18T12:54:44.855Z,7.67
2019-03-18T12:57:14.883Z,5.93
2019-03-18T12:59:45.038Z,9.67
2019-03-18T13:02:29.751Z,6.97
2019-03-18T13:04:59.276Z,7.57
2019-03-18T13:07:30.211Z,6.10
2019-03-18T13:10:00.389Z,6.53
2019-03-18T13:12:35.810Z,7.43
2019-03-18T13:15:07.149Z,8.03
2019-03-18T13:17:38.364Z,5.67
2019-03-18T13:20:14.015Z,4.73
2019-03-18T13:22:46.820Z,3.70
2019-03-18T13:25:19.032Z,7.93
2019-03-18T13:28:00.333Z,6.27
2019-03-18T13:30:30.296Z,8.37
2019-03-18T13:33:01.428Z,7.63
2019-03-18T13:35:31.321Z,10.33
2019-03-18T13:38:03.831Z,6.80
2019-03-18T13:40:35.591Z,12.00
2019-03-18T13:43:13.032Z,6.20
2019-03-18T13:45:54.588Z,6.13
2019-03-18T13:48:14.676Z,6.20
2019-03-18T13:50:44.621Z,6.60
2019-03-18T13:53:14.577Z,8.17
2019-03-18T13:55:47.181Z,5.87
2019-03-18T13:58:18.126Z,7.70
2019-03-18T14:00:48.070Z,5.03
2019-03-18T14:03:19.212Z,9.37
2019-03-18T14:05:49.100Z,6.57
2019-03-18T14:08:18.945Z,3.97
2019-03-18T14:10:48.934Z,7.63
2019-03-18T14:13:20.632Z,8.37
2019-03-18T14:15:50.741Z,5.63
2019-03-18T14:18:20.573Z,5.57
2019-03-18T14:20:50.520Z,7.70
2019-03-18T14:23:27.600Z,7.30
2019-03-18T14:25:57.863Z,6.73
2019-03-18T14:28:27.846Z,9.67
2019-03-18T14:31:00.459Z,8.20
2019-03-18T14:33:30.715Z,8.70
2019-03-18T14:36:03.077Z,6.93
2019-03-18T14:38:33.932Z,5.87
2019-03-18T14:41:05.385Z,6.40
2019-03-18T14:43:35.564Z,3.93
2019-03-18T14:46:05.705Z,11.17
2019-03-18T14:48:48.951Z,3.97
2019-03-18T14:51:20.979Z,8.17
2019-03-18T14:53:51.248Z,5.57
2019-03-18T14:56:21.351Z,8.10
2019-03-18T14:58:51.387Z,6.23
2019-03-18T15:01:21.473Z,6.00
2019-03-18T15:03:51.725Z,6.87
2019-03-18T15:06:22.160Z,7.13
2019-03-18T15:08:52.142Z,7.20
2019-03-18T15:11:22.011Z,7.77
2019-03-18T15:13:52.401Z,4.60
2019-03-18T15:16:22.287Z,8.17
2019-03-18T15:18:52.641Z,3.70
2019-03-18T15:21:24.954Z,7.10
2019-03-18T15:23:57.088Z,6.20
2019-03-18T15:26:28.184Z,7.40
2019-03-18T15:28:58.410Z,5.87
2019-03-18T15:31:29.404Z,7.57
2019-03-18T15:33:59.344Z,6.90
2019-03-18T15:36:31.348Z,5.47
2019-03-18T15:39:01.739Z,7.63
2019-03-18T15:41:32.345Z,11.37
2019-03-18T15:44:02.390Z,5.43
2019-03-18T15:46:32.652Z,3.73
2019-03-18T15:49:02.814Z,6.43
2019-03-18T15:51:32.726Z,3.53
2019-03-18T15:54:04.963Z,7.03
2019-03-18T15:56:34.918Z,9.97
2019-03-18T15:59:05.690Z,10.00
2019-03-18T16:01:35.893Z,5.40
2019-03-18T16:04:05.961Z,5.50
2019-03-18T16:06:35.718Z,6.60
2019-03-18T16:09:08.093Z,27.23
2019-03-18T16:11:38.255Z,11.43
2019-03-18T16:14:08.074Z,6.37
2019-03-18T16:16:37.831Z,6.33
2019-03-18T16:19:07.724Z,10.73
2019-03-18T16:21:37.465Z,8.93
2019-03-18T16:24:07.529Z,8.30
2019-03-18T16:26:37.380Z,7.57
2019-03-18T16:29:07.361Z,12.17
2019-03-18T16:31:37.716Z,8.47
2019-03-18T16:34:07.651Z,5.63
2019-03-18T16:36:37.751Z,8.47
2019-03-18T16:39:07.886Z,8.30
2019-03-18T16:41:37.896Z,12.70
2019-03-18T16:44:07.722Z,9.77
2019-03-18T16:46:44.111Z,7.93
2019-03-18T16:49:15.074Z,7.73
2019-03-18T16:51:45.067Z,11.37
2019-03-18T16:54:20.985Z,10.73
2019-03-18T16:56:52.242Z,10.50
2019-03-18T16:59:22.139Z,11.30
2019-03-18T17:01:52.231Z,6.60
2019-03-18T17:04:22.137Z,11.47
2019-03-18T17:06:54.095Z,10.23
2019-03-18T17:09:23.986Z,7.47
2019-03-18T17:11:53.999Z,8.67
2019-03-18T17:14:27.392Z,11.37
2019-03-18T17:16:57.355Z,7.60
2019-03-18T17:19:27.263Z,8.10
2019-03-18T17:21:57.145Z,6.03
2019-03-18T17:24:27.185Z,9.23
2019-03-18T17:26:59.482Z,10.40
2019-03-18T17:29:29.476Z,12.53
2019-03-18T17:31:59.479Z,5.43
2019-03-18T17:34:30.095Z,8.60
2019-03-18T17:37:00.743Z,16.60
2019-03-18T17:39:33.108Z,8.97
2019-03-18T17:42:03.493Z,4.00
2019-03-18T17:44:36.205Z,6.57
2019-03-18T17:47:07.397Z,11.43
2019-03-18T17:49:37.116Z,6.10
2019-03-18T17:52:08.436Z,7.57
2019-03-18T17:54:38.788Z,10.73
2019-03-18T17:57:11.035Z,7.30
2019-03-18T17:59:42.779Z,7.83
2019-03-18T18:02:12.818Z,8.93
2019-03-18T18:04:42.877Z,9.03
2019-03-18T18:07:12.895Z,8.37
2019-03-18T18:09:42.898Z,4.43
2019-03-18T18:12:15.529Z,6.70
2019-03-18T18:14:45.616Z,8.40
2019-03-18T18:17:15.759Z,7.17
2019-03-18T18:19:45.989Z,9.37
2019-03-18T18:22:16.053Z,8.37
2019-03-18T18:24:46.128Z,7.77
2019-03-18T18:27:15.953Z,9.13
2019-03-18T18:29:55.347Z,10.23
2019-03-18T18:32:25.421Z,11.40
2019-03-18T18:34:58.731Z,8.63
2019-03-18T18:37:32.634Z,10.53
2019-03-18T18:40:04.859Z,9.30
2019-03-18T18:42:34.571Z,6.57
2019-03-18T18:45:04.959Z,8.37
2019-03-18T18:47:35.097Z,8.27
2019-03-18T18:53:27.639Z,6.70
2019-03-18T18:55:57.636Z,13.67
2019-03-18T18:58:27.751Z,10.03
2019-03-18T19:00:57.901Z,9.90
2019-03-18T19:03:31.255Z,9.83
2019-03-18T19:06:01.445Z,8.90
2019-03-18T19:08:32.278Z,9.57
2019-03-18T19:11:05.974Z,7.77
2019-03-18T19:13:36.355Z,9.93
2019-03-18T19:16:10.530Z,9.53
2019-03-18T19:18:43.035Z,12.03
2019-03-18T19:21:14.085Z,11.13
2019-03-18T19:23:44.941Z,8.83
2019-03-18T19:26:15.424Z,10.13
2019-03-18T19:28:47.304Z,8.50
2019-03-18T19:31:17.688Z,4.90
2019-03-18T19:33:48.876Z,9.60
2019-03-18T19:36:19.750Z,11.17
2019-03-18T19:38:50.640Z,6.27
2019-03-18T19:41:22.705Z,7.60
2019-03-18T19:43:54.528Z,10.20
2019-03-18T19:46:24.929Z,11.48
2019-03-18T19:49:01.258Z,12.40
2019-03-18T19:51:41.128Z,11.20
2019-03-18T19:54:24.935Z,8.63
2019-03-18T19:57:20.214Z,12.03
2019-03-18T19:59:51.616Z,7.90
2019-03-18T20:02:21.631Z,10.98
2019-03-18T20:04:52.674Z,8.00
2019-03-18T20:07:22.639Z,6.70
2019-03-18T20:09:55.066Z,8.63
2019-03-18T20:12:24.913Z,8.87
2019-03-18T20:14:59.019Z,13.90
2019-03-18T20:17:47.996Z,9.17
2019-03-18T20:20:20.680Z,8.47
2019-03-18T20:23:18.130Z,9.37
2019-03-18T20:25:48.482Z,11.83
2019-03-18T20:28:19.969Z,8.47
2019-03-18T20:30:50.066Z,16.23
2019-03-18T20:33:21.313Z,9.97
2019-03-18T20:35:55.260Z,12.37
2019-03-18T20:38:31.518Z,9.37
2019-03-18T20:41:01.951Z,12.63
2019-03-18T20:43:32.814Z,8.20
2019-03-18T20:46:04.831Z,15.03
2019-03-18T20:48:36.251Z,10.53
2019-03-18T20:51:06.090Z,14.97
2019-03-18T20:53:39.030Z,12.00
2019-03-18T20:56:10.590Z,10.03
2019-03-18T20:58:44.408Z,7.30
2019-03-18T21:01:15.818Z,9.47
2019-03-18T21:03:46.748Z,9.47
2019-03-18T21:06:16.589Z,9.73
2019-03-18T21:08:49.922Z,7.27
2019-03-18T21:11:20.523Z,14.83
2019-03-18T21:13:57.125Z,7.77
2019-03-18T21:16:25.172Z,11.27
2019-03-18T21:18:56.316Z,10.33
2019-03-18T21:21:26.512Z,6.53
2019-03-18T21:23:56.442Z,7.33
2019-03-18T21:26:27.567Z,10.93
2019-03-18T21:28:57.664Z,9.37
2019-03-18T21:31:28.480Z,9.57
2019-03-18T21:33:58.635Z,8.60
2019-03-18T21:36:37.867Z,8.50
2019-03-18T21:39:00.897Z,11.90
2019-03-18T21:41:32.232Z,12.97
2019-03-18T21:44:02.987Z,16.20
2019-03-18T21:46:33.906Z,9.60
2019-03-18T21:49:08.062Z,12.53
2019-03-18T21:51:39.235Z,9.50
2019-03-18T21:54:09.540Z,11.47
2019-03-18T21:56:39.694Z,14.47
2019-03-18T21:59:11.659Z,9.57
2019-03-18T22:01:41.725Z,9.98
2019-03-18T22:04:11.844Z,10.50
2019-03-18T22:06:41.832Z,16.17
2019-03-18T22:09:12.003Z,13.67
2019-03-18T22:11:43.377Z,10.53
2019-03-18T22:14:15.451Z,11.18
2019-03-18T22:16:52.627Z,12.90
2019-03-18T22:19:40.513Z,10.83
2019-03-18T22:22:11.571Z,12.87
2019-03-18T22:24:45.458Z,13.37
2019-03-18T22:27:13.622Z,9.17
2019-03-18T22:29:43.461Z,11.83
2019-03-18T22:32:19.047Z,12.87
2019-03-18T22:34:50.360Z,19.57
2019-03-18T22:37:24.126Z,9.20
2019-03-18T22:39:56.937Z,13.08
2019-03-18T22:42:40.269Z,11.97
2019-03-18T22:45:12.837Z,15.97
2019-03-18T22:47:44.838Z,14.73
2019-03-18T22:50:18.389Z,16.10
2019-03-18T22:52:48.470Z,13.60
2019-03-18T22:55:19.537Z,8.53
2019-03-18T22:57:50.380Z,11.77
2019-03-18T23:00:48.786Z,10.60
2019-03-18T23:03:18.764Z,11.73
2019-03-18T23:05:48.744Z,10.38
2019-03-18T23:08:18.653Z,10.67
2019-03-18T23:10:49.676Z,13.40
2019-03-18T23:13:19.639Z,10.13
2019-03-18T23:15:49.514Z,11.07
2019-03-18T23:18:19.906Z,13.83
2019-03-18T23:20:49.788Z,12.50
2019-03-18T23:23:20.540Z,12.73
2019-03-18T23:25:50.652Z,13.13
2019-03-18T23:28:26.664Z,9.05
2019-03-18T23:30:56.492Z,9.93
2019-03-18T23:33:26.531Z,7.73
2019-03-18T23:35:56.324Z,11.73
2019-03-18T23:38:26.193Z,9.95
2019-03-18T23:40:55.990Z,12.70
2019-03-18T23:43:25.795Z,14.77
2019-03-18T23:45:58.270Z,18.28
2019-03-18T23:48:28.381Z,16.57
2019-03-18T23:50:58.301Z,9.43
2019-03-18T23:53:28.166Z,7.67
2019-03-18T23:55:58.229Z,10.47
2019-03-18T23:58:28.218Z,9.00
